createdAt,value
2022-08-11T00:01:37.911Z,97.68
2022-08-11T00:04:45.181Z,98.06
2022-08-11T00:07:55.950Z,97.47
2022-08-11T00:11:06.454Z,97.41
2022-08-11T00:14:19.314Z,97.11
2022-08-11T00:17:29.373Z,99.26
2022-08-11T00:22:02.790Z,99.17
2022-08-11T00:24:57.349Z,100.00
2022-08-11T00:28:24.055Z,100.00
2022-08-11T00:31:34.305Z,100.00
2022-08-11T00:34:50.193Z,100.00
2022-08-11T00:37:58.216Z,100.00
2022-08-11T00:41:16.574Z,100.00
2022-08-11T00:44:31.569Z,100.00
2022-08-11T00:47:51.647Z,100.00
2022-08-11T00:51:20.171Z,100.00
2022-08-11T00:54:57.985Z,100.00
2022-08-11T00:58:51.104Z,100.00
2022-08-11T01:02:07.617Z,100.00
2022-08-11T01:05:47.091Z,100.00
2022-08-11T01:09:22.697Z,100.00
2022-08-11T01:12:40.980Z,100.00
2022-08-11T01:16:23.543Z,100.00
2022-08-11T01:20:44.638Z,100.00
2022-08-11T01:24:00.358Z,100.00
2022-08-11T01:27:24.420Z,100.00
2022-08-11T01:30:50.175Z,100.00
2022-08-11T01:34:26.345Z,100.00
2022-08-11T01:38:10.596Z,100.00
2022-08-11T01:42:01.121Z,100.00
2022-08-11T01:45:09.091Z,100.00
2022-08-11T01:48:17.653Z,100.00
2022-08-11T01:51:30.279Z,100.00
2022-08-11T01:54:42.079Z,100.00
2022-08-11T01:57:54.153Z,100.00
2022-08-11T02:01:06.956Z,99.69
2022-08-11T02:04:25.842Z,100.00
2022-08-11T02:07:36.937Z,100.00
2022-08-11T02:11:06.661Z,100.00
2022-08-11T02:14:20.980Z,100.00
2022-08-11T02:17:42.390Z,100.00
2022-08-11T02:21:07.620Z,100.00
2022-08-11T02:24:18.891Z,100.00
2022-08-11T02:27:26.857Z,100.00
2022-08-11T02:30:36.430Z,100.00
2022-08-11T02:33:42.101Z,100.00
2022-08-11T02:36:55.493Z,100.00
2022-08-11T02:40:12.230Z,100.00
2022-08-11T02:43:31.263Z,100.00
2022-08-11T02:46:46.571Z,100.00
2022-08-11T02:49:59.945Z,100.00
2022-08-11T02:53:17.863Z,100.00
2022-08-11T02:56:29.218Z,100.00
2022-08-11T02:59:51.752Z,100.00
2022-08-11T03:03:02.707Z,100.00
2022-08-11T03:06:10.671Z,100.00
2022-08-11T03:09:20.298Z,100.00
2022-08-11T03:12:53.125Z,100.00
2022-08-11T03:16:29.257Z,100.00
2022-08-11T03:19:50.493Z,100.00
2022-08-11T03:23:02.856Z,100.00
2022-08-11T03:26:15.058Z,100.00
2022-08-11T03:29:35.331Z,100.00
2022-08-11T03:33:06.932Z,100.00
2022-08-11T03:36:21.209Z,100.00
2022-08-11T03:39:31.432Z,100.00
2022-08-11T03:42:44.215Z,100.00
2022-08-11T03:45:58.943Z,100.00
2022-08-11T03:49:12.707Z,100.00
2022-08-11T03:52:24.535Z,100.00
2022-08-11T03:55:58.527Z,100.00
2022-08-11T03:59:32.929Z,100.00
2022-08-11T04:03:31.085Z,100.00
2022-08-11T04:06:58.094Z,100.00
2022-08-11T04:10:40.634Z,100.00
2022-08-11T04:14:30.254Z,100.00
2022-08-11T04:18:00.958Z,100.00
2022-08-11T04:21:22.649Z,100.00
2022-08-11T04:24:55.344Z,100.00
2022-08-11T04:28:28.627Z,100.00
2022-08-11T04:31:49.577Z,100.00
2022-08-11T04:35:20.268Z,100.00
2022-08-11T04:38:46.289Z,100.00
2022-08-11T04:42:33.584Z,100.00
2022-08-11T04:46:02.391Z,100.00
2022-08-11T04:49:46.685Z,100.00
2022-08-11T04:53:31.530Z,100.00
2022-08-11T04:56:51.813Z,100.00
2022-08-11T05:00:23.027Z,100.00
2022-08-11T05:04:31.356Z,100.00
2022-08-11T05:08:21.935Z,100.00
2022-08-11T05:11:45.062Z,100.00
2022-08-11T05:15:09.596Z,100.00
2022-08-11T05:18:37.847Z,100.00
2022-08-11T05:22:01.965Z,100.00
2022-08-11T05:26:43.863Z,100.00
2022-08-11T05:29:20.081Z,100.00
2022-08-11T05:32:42.815Z,100.00
2022-08-11T05:36:00.669Z,100.00
2022-08-11T05:39:36.493Z,100.00
2022-08-11T05:43:02.124Z,100.00
2022-08-11T05:46:25.692Z,100.00
2022-08-11T05:49:49.664Z,100.00
2022-08-11T05:53:12.126Z,100.00
2022-08-11T05:56:19.460Z,100.00
2022-08-11T05:59:24.311Z,100.00
2022-08-11T06:02:28.011Z,100.00
2022-08-11T06:05:43.302Z,100.00
2022-08-11T06:08:49.501Z,99.51
2022-08-11T06:11:53.271Z,98.58
2022-08-11T06:14:58.282Z,97.78
2022-08-11T06:18:03.529Z,95.31
2022-08-11T06:21:12.160Z,95.05
2022-08-11T06:24:17.487Z,92.43
2022-08-11T06:27:22.395Z,92.57
2022-08-11T06:30:39.669Z,91.79
2022-08-11T06:33:56.509Z,90.62
2022-08-11T06:37:11.503Z,89.47
2022-08-11T06:40:28.462Z,88.43
2022-08-11T06:43:43.904Z,87.60
2022-08-11T06:47:09.929Z,85.02
2022-08-11T06:50:36.087Z,85.19
2022-08-11T06:53:43.621Z,81.42
2022-08-11T06:57:30.254Z,80.66
2022-08-11T07:00:35.239Z,78.83
2022-08-11T07:03:43.969Z,78.95
2022-08-11T07:07:29.861Z,77.90
2022-08-11T07:11:06.017Z,78.30
2022-08-11T07:14:31.975Z,76.05
2022-08-11T07:17:43.760Z,74.93
2022-08-11T07:21:04.854Z,74.36
2022-08-11T07:25:01.457Z,71.79
2022-08-11T07:28:29.589Z,70.47
2022-08-11T07:31:42.095Z,72.10
2022-08-11T07:34:54.407Z,68.04
2022-08-11T07:38:02.107Z,67.30
2022-08-11T07:41:06.613Z,65.81
2022-08-11T07:44:11.949Z,61.04
2022-08-11T07:47:33.861Z,60.56
2022-08-11T07:50:56.199Z,58.35
2022-08-11T07:54:07.527Z,54.58
2022-08-11T07:58:13.960Z,55.08
2022-08-11T08:01:22.458Z,53.10
2022-08-11T08:04:47.398Z,51.89
2022-08-11T08:08:07.999Z,52.46
2022-08-11T08:11:28.441Z,49.41
2022-08-11T08:14:49.471Z,51.08
2022-08-11T08:18:20.641Z,49.53
2022-08-11T08:21:18.007Z,49.78
2022-08-11T08:24:22.189Z,50.88
2022-08-11T08:27:25.967Z,49.21
2022-08-11T08:30:51.022Z,49.23
2022-08-11T08:33:54.331Z,49.81
2022-08-11T08:36:58.947Z,49.16
2022-08-11T08:40:02.859Z,49.09
2022-08-11T08:43:10.522Z,48.63
2022-08-11T08:46:15.245Z,47.44
2022-08-11T08:49:28.264Z,48.56
2022-08-11T08:52:43.707Z,48.49
2022-08-11T08:55:47.529Z,47.40
2022-08-11T08:58:51.584Z,48.04
2022-08-11T09:01:59.726Z,48.80
2022-08-11T09:05:03.874Z,46.27
2022-08-11T09:08:08.893Z,46.75
2022-08-11T09:11:30.672Z,46.29
2022-08-11T09:14:51.215Z,45.99
2022-08-11T09:18:03.760Z,46.65
2022-08-11T09:21:07.968Z,47.23
2022-08-11T09:24:30.499Z,45.75
2022-08-11T09:27:34.094Z,46.43
2022-08-11T09:30:38.093Z,45.47
2022-08-11T09:33:42.896Z,46.42
2022-08-11T09:37:09.707Z,45.14
2022-08-11T09:40:30.378Z,45.61
2022-08-11T09:43:52.220Z,45.22
2022-08-11T09:46:59.372Z,45.29
2022-08-11T09:50:03.801Z,46.82
2022-08-11T09:53:35.157Z,46.14
2022-08-11T09:56:50.234Z,44.63
2022-08-11T09:59:54.027Z,43.70
2022-08-11T10:03:20.197Z,43.77
2022-08-11T10:06:40.674Z,44.04
2022-08-11T10:09:51.413Z,43.93
2022-08-11T10:13:01.636Z,42.38
2022-08-11T10:16:16.108Z,42.98
2022-08-11T10:19:22.152Z,42.79
2022-08-11T10:22:43.554Z,43.48
2022-08-11T10:26:04.606Z,43.14
2022-08-11T10:29:25.177Z,43.69
2022-08-11T10:32:58.670Z,42.75
2022-08-11T10:36:16.552Z,42.61
2022-08-11T10:39:21.762Z,42.44
2022-08-11T10:42:57.446Z,42.21
2022-08-11T10:46:30.008Z,41.21
2022-08-11T10:49:34.349Z,41.29
2022-08-11T10:52:56.004Z,40.64
2022-08-11T10:56:17.662Z,41.50
2022-08-11T10:59:20.860Z,41.92
2022-08-11T11:02:27.291Z,40.16
2022-08-11T11:05:32.532Z,41.25
2022-08-11T11:09:03.727Z,41.21
2022-08-11T11:12:26.759Z,40.99
2022-08-11T11:15:49.802Z,41.23
2022-08-11T11:19:00.757Z,42.02
2022-08-11T11:22:21.158Z,40.68
2022-08-11T11:25:37.696Z,40.09
2022-08-11T11:29:08.814Z,39.80
2022-08-11T11:32:28.660Z,40.17
2022-08-11T11:35:44.605Z,39.82
2022-08-11T11:38:47.838Z,38.96
2022-08-11T11:41:54.344Z,39.71
2022-08-11T11:45:01.314Z,39.63
2022-08-11T11:48:05.438Z,38.47
2022-08-11T11:51:14.112Z,38.72
2022-08-11T11:54:17.974Z,37.95
2022-08-11T11:57:40.630Z,38.42
2022-08-11T12:01:05.136Z,39.30
2022-08-11T12:04:08.438Z,40.08
2022-08-11T12:07:34.114Z,40.41
2022-08-11T12:10:37.719Z,39.95
2022-08-11T12:13:43.224Z,38.93
2022-08-11T12:16:47.692Z,39.26
2022-08-11T12:19:51.592Z,39.61
2022-08-11T12:23:16.033Z,39.31
2022-08-11T12:26:37.266Z,38.77
2022-08-11T12:29:43.821Z,37.88
2022-08-11T12:32:47.161Z,39.77
2022-08-11T12:35:58.901Z,40.11
2022-08-11T12:39:18.152Z,39.98
2022-08-11T12:42:55.347Z,40.01
2022-08-11T12:46:03.409Z,39.46
2022-08-11T12:49:30.863Z,39.82
2022-08-11T12:52:38.222Z,39.43
2022-08-11T12:56:03.397Z,39.78
2022-08-11T12:59:26.435Z,39.63
2022-08-11T13:02:47.361Z,39.95
2022-08-11T13:05:54.717Z,39.66
2022-08-11T13:09:01.528Z,39.87
2022-08-11T13:12:25.070Z,38.10
2022-08-11T13:15:28.568Z,39.06
2022-08-11T13:18:31.575Z,38.04
2022-08-11T13:21:34.685Z,39.34
2022-08-11T13:24:38.233Z,40.06
2022-08-11T13:27:43.459Z,39.51
2022-08-11T13:31:03.979Z,40.30
2022-08-11T13:34:09.246Z,40.21
2022-08-11T13:37:15.227Z,40.40
2022-08-11T13:40:33.204Z,39.58
2022-08-11T13:43:45.558Z,39.34
2022-08-11T13:46:53.073Z,39.01
2022-08-11T13:49:58.090Z,38.91
2022-08-11T13:53:01.239Z,39.19
2022-08-11T13:56:04.351Z,38.94
2022-08-11T13:59:09.990Z,38.36
2022-08-11T14:02:22.110Z,37.89
2022-08-11T14:05:38.963Z,37.58
2022-08-11T14:08:47.189Z,37.05
2022-08-11T14:12:21.726Z,37.37
2022-08-11T14:15:32.070Z,37.63
2022-08-11T14:18:36.159Z,36.09
2022-08-11T14:22:05.025Z,35.93
2022-08-11T14:25:12.391Z,36.53
2022-08-11T14:28:33.661Z,36.12
2022-08-11T14:31:46.515Z,35.98
2022-08-11T14:34:50.424Z,36.74
2022-08-11T14:37:53.736Z,37.00
2022-08-11T14:41:22.767Z,37.13
2022-08-11T14:44:44.091Z,37.41
2022-08-11T14:47:51.332Z,37.70
2022-08-11T14:50:54.630Z,37.30
2022-08-11T14:54:17.904Z,36.54
2022-08-11T14:57:21.441Z,37.19
2022-08-11T15:00:44.747Z,37.42
2022-08-11T15:04:25.094Z,36.81
2022-08-11T15:07:16.321Z,37.23
2022-08-11T15:10:21.028Z,35.98
2022-08-11T15:13:23.857Z,36.41
2022-08-11T15:16:45.506Z,36.36
2022-08-11T15:20:05.209Z,36.80
2022-08-11T15:23:26.473Z,36.57
2022-08-11T15:26:52.022Z,35.07
2022-08-11T15:30:17.571Z,36.90
2022-08-11T15:33:57.252Z,36.72
2022-08-11T15:37:25.987Z,36.93
2022-08-11T15:40:48.717Z,36.29
2022-08-11T15:44:13.307Z,35.65
2022-08-11T15:47:18.018Z,36.16
2022-08-11T15:50:21.887Z,35.70
2022-08-11T15:53:31.692Z,34.35
2022-08-11T15:56:38.751Z,34.76
2022-08-11T15:59:59.252Z,35.55
2022-08-11T16:03:21.768Z,34.02
2022-08-11T16:06:26.743Z,33.51
2022-08-11T16:09:47.091Z,34.12
2022-08-11T16:13:22.460Z,34.49
2022-08-11T16:16:24.776Z,33.39
2022-08-11T16:19:35.464Z,33.98
2022-08-11T16:22:42.285Z,32.93
2022-08-11T16:27:09.501Z,32.69
2022-08-11T16:29:26.061Z,32.22
2022-08-11T16:32:30.140Z,31.73
2022-08-11T16:35:53.535Z,30.99
2022-08-11T16:38:57.912Z,31.94
2022-08-11T16:43:04.619Z,31.99
2022-08-11T16:46:01.174Z,32.34
2022-08-11T16:49:07.049Z,32.54
2022-08-11T16:52:12.820Z,33.11
2022-08-11T16:55:51.414Z,32.65
2022-08-11T16:58:59.663Z,32.44
2022-08-11T17:02:08.216Z,33.63
2022-08-11T17:05:31.937Z,33.10
2022-08-11T17:08:57.388Z,34.37
2022-08-11T17:12:21.293Z,33.13
2022-08-11T17:15:52.946Z,34.00
2022-08-11T17:18:59.467Z,34.35
2022-08-11T17:22:21.364Z,34.16
2022-08-11T17:25:29.236Z,34.25
2022-08-11T17:28:35.507Z,34.17
2022-08-11T17:31:58.534Z,34.72
2022-08-11T17:35:22.799Z,34.59
2022-08-11T17:38:26.351Z,34.66
2022-08-11T17:41:52.174Z,35.00
2022-08-11T17:45:13.823Z,35.19
2022-08-11T17:48:27.388Z,35.03
2022-08-11T17:51:45.690Z,35.10
2022-08-11T17:55:07.662Z,36.37
2022-08-11T17:58:28.978Z,35.27
2022-08-11T18:01:33.962Z,36.62
2022-08-11T18:04:38.376Z,37.27
2022-08-11T18:08:03.320Z,36.64
2022-08-11T18:12:11.239Z,37.73
2022-08-11T18:15:09.469Z,37.89
2022-08-11T18:18:30.549Z,38.53
2022-08-11T18:22:03.725Z,39.09
2022-08-11T18:25:43.250Z,39.72
2022-08-11T18:29:10.575Z,40.37
2022-08-11T18:32:49.590Z,40.74
2022-08-11T18:36:20.622Z,42.00
2022-08-11T18:39:54.617Z,43.33
2022-08-11T18:43:25.114Z,43.66
2022-08-11T18:46:52.066Z,43.32
2022-08-11T18:50:18.124Z,44.03
2022-08-11T18:53:55.966Z,43.46
2022-08-11T18:57:22.301Z,44.57
2022-08-11T19:00:45.399Z,43.95
2022-08-11T19:04:11.838Z,44.39
2022-08-11T19:07:39.033Z,45.23
2022-08-11T19:11:01.133Z,44.34
2022-08-11T19:14:24.761Z,45.19
2022-08-11T19:17:47.009Z,45.40
2022-08-11T19:21:09.246Z,45.50
2022-08-11T19:24:32.761Z,45.08
2022-08-11T19:27:53.508Z,45.26
2022-08-11T19:31:15.846Z,45.46
2022-08-11T19:34:39.926Z,46.00
2022-08-11T19:38:02.039Z,46.20
2022-08-11T19:41:56.697Z,47.37
2022-08-11T19:45:05.630Z,47.57
2022-08-11T19:48:32.068Z,50.52
2022-08-11T19:51:54.720Z,51.13
2022-08-11T19:55:16.243Z,50.58
2022-08-11T19:58:39.057Z,49.19
2022-08-11T20:02:04.011Z,51.63
2022-08-11T20:05:37.226Z,50.73
2022-08-11T20:09:02.110Z,49.82
2022-08-11T20:12:26.189Z,50.05
2022-08-11T20:15:47.574Z,50.52
2022-08-11T20:19:10.834Z,51.55
2022-08-11T20:22:33.670Z,51.95
2022-08-11T20:26:03.347Z,53.19
2022-08-11T20:29:45.859Z,53.91
2022-08-11T20:33:07.349Z,54.29
2022-08-11T20:36:34.560Z,56.61
2022-08-11T20:39:57.895Z,56.73
2022-08-11T20:44:06.951Z,57.01
2022-08-11T20:47:02.396Z,58.57
2022-08-11T20:50:25.390Z,59.48
2022-08-11T20:53:52.243Z,62.60
2022-08-11T20:57:16.053Z,61.84
2022-08-11T21:00:39.574Z,60.56
2022-08-11T21:04:00.768Z,60.88
2022-08-11T21:07:28.763Z,61.51
2022-08-11T21:10:52.291Z,62.88
2022-08-11T21:14:15.151Z,64.56
2022-08-11T21:18:00.076Z,65.85
2022-08-11T21:21:23.242Z,65.35
2022-08-11T21:24:46.969Z,66.34
2022-08-11T21:28:10.905Z,67.74
2022-08-11T21:31:34.583Z,69.08
2022-08-11T21:34:55.568Z,69.59
2022-08-11T21:38:17.715Z,69.69
2022-08-11T21:41:38.335Z,70.68
2022-08-11T21:45:01.429Z,71.33
2022-08-11T21:48:25.558Z,71.79
2022-08-11T21:51:45.854Z,73.00
2022-08-11T21:55:08.849Z,73.52
2022-08-11T21:58:30.830Z,75.50
2022-08-11T22:01:53.586Z,75.73
2022-08-11T22:05:15.710Z,75.52
2022-08-11T22:08:36.926Z,76.29
2022-08-11T22:12:29.841Z,77.68
2022-08-11T22:15:38.445Z,80.42
2022-08-11T22:18:59.579Z,79.86
2022-08-11T22:22:26.397Z,79.42
2022-08-11T22:25:55.095Z,79.11
2022-08-11T22:29:20.429Z,81.02
2022-08-11T22:33:02.286Z,81.65
2022-08-11T22:36:23.122Z,80.62
2022-08-11T22:39:59.919Z,82.03
2022-08-11T22:43:23.428Z,82.96
2022-08-11T22:46:44.717Z,84.65
2022-08-11T22:50:09.586Z,85.34
2022-08-11T22:53:58.576Z,85.89
2022-08-11T22:57:14.278Z,86.84
2022-08-11T23:00:35.722Z,87.25
2022-08-11T23:03:56.667Z,87.00
2022-08-11T23:07:51.453Z,89.29
2022-08-11T23:11:00.456Z,90.57
2022-08-11T23:14:23.254Z,91.19
2022-08-11T23:17:44.075Z,90.74
2022-08-11T23:21:04.687Z,93.31
2022-08-11T23:24:26.308Z,93.67
2022-08-11T23:27:47.378Z,94.58
2022-08-11T23:31:12.091Z,96.74
2022-08-11T23:35:03.022Z,96.15
2022-08-11T23:38:19.181Z,94.78
2022-08-11T23:41:39.614Z,93.98
2022-08-11T23:44:59.811Z,94.49
2022-08-11T23:48:22.155Z,94.29
2022-08-11T23:51:44.463Z,94.83
2022-08-11T23:55:05.023Z,93.15
2022-08-11T23:58:25.839Z,92.08
